Terminal Aerodrome Forecast
Issued by NWS Grand Forks, ND

Home | Current Version | Previous Version | Text Only | Print | Product List | Glossary On
Versions: 1 2 3 4 5 6 7 8 9 10 11 12 13 14
000
FTUS43 KFGF 240500
TAFFAR
TAF
KFAR 240520Z 2406/2506 VRB04KT P6SM FEW040
     FM241500 15015KT P6SM BKN120
     FM242300 16014KT P6SM BKN090=

USA.gov is the U.S. government's official web portal to all federal, state and local government web resources and services.